createdAt,value
2023-05-09T00:01:56.547Z,72.34
2023-05-09T00:04:25.128Z,73.12
2023-05-09T00:06:52.267Z,72.62
2023-05-09T00:09:19.377Z,73.11
2023-05-09T00:11:46.857Z,74.07
2023-05-09T00:14:14.063Z,74.70
2023-05-09T00:16:41.294Z,74.95
2023-05-09T00:19:08.829Z,74.50
2023-05-09T00:21:36.081Z,74.77
2023-05-09T00:24:03.171Z,73.94
2023-05-09T00:26:30.654Z,73.92
2023-05-09T00:28:57.709Z,74.24
2023-05-09T00:31:24.937Z,74.32
2023-05-09T00:33:54.154Z,74.57
2023-05-09T00:36:21.474Z,74.53
2023-05-09T00:38:49.111Z,73.99
2023-05-09T00:41:16.612Z,74.05
2023-05-09T00:43:43.740Z,73.74
2023-05-09T00:46:11.818Z,73.86
2023-05-09T00:48:39.308Z,74.43
2023-05-09T00:51:06.505Z,74.34
2023-05-09T00:53:34.075Z,75.13
2023-05-09T00:56:02.231Z,75.74
2023-05-09T00:58:30.134Z,76.42
2023-05-09T01:00:57.770Z,76.29
2023-05-09T01:03:26.280Z,75.92
2023-05-09T01:05:58.838Z,76.30
2023-05-09T01:08:44.554Z,76.23
2023-05-09T01:11:30.316Z,77.30
2023-05-09T01:14:14.460Z,77.62
2023-05-09T01:16:47.550Z,78.93
2023-05-09T01:19:33.639Z,79.78
2023-05-09T01:22:02.391Z,79.53
2023-05-09T01:25:07.416Z,80.15
2023-05-09T01:27:45.324Z,80.74
2023-05-09T01:30:14.159Z,80.96
2023-05-09T01:32:43.173Z,80.91
2023-05-09T01:35:14.304Z,80.83
2023-05-09T01:37:43.743Z,81.28
2023-05-09T01:40:14.694Z,80.92
2023-05-09T01:42:50.080Z,80.57
2023-05-09T01:45:17.987Z,80.98
2023-05-09T01:47:47.656Z,80.75
2023-05-09T01:50:17.524Z,80.96
2023-05-09T01:52:48.182Z,80.86
2023-05-09T01:55:16.970Z,80.89
2023-05-09T01:57:45.668Z,81.23
2023-05-09T02:00:14.411Z,81.49
2023-05-09T02:02:41.821Z,82.00
2023-05-09T02:05:11.355Z,81.50
2023-05-09T02:07:39.023Z,81.64
2023-05-09T02:10:07.907Z,81.50
2023-05-09T02:12:37.934Z,81.78
2023-05-09T02:15:06.607Z,82.77
2023-05-09T02:17:34.091Z,83.03
2023-05-09T02:20:01.638Z,83.10
2023-05-09T02:22:28.770Z,83.10
2023-05-09T02:24:56.022Z,83.35
2023-05-09T02:27:23.863Z,83.00
2023-05-09T02:29:52.050Z,83.40
2023-05-09T02:32:22.601Z,83.02
2023-05-09T02:34:51.171Z,83.72
2023-05-09T02:37:18.917Z,83.64
2023-05-09T02:39:46.527Z,83.78
2023-05-09T02:42:15.884Z,84.21
2023-05-09T02:44:42.984Z,84.34
2023-05-09T02:47:10.093Z,84.18
2023-05-09T02:49:37.534Z,84.64
2023-05-09T02:52:05.153Z,84.54
2023-05-09T02:54:32.300Z,83.73
2023-05-09T02:56:59.731Z,82.95
2023-05-09T02:59:26.833Z,83.55
2023-05-09T03:01:54.413Z,82.72
2023-05-09T03:04:22.222Z,83.26
2023-05-09T03:06:49.702Z,82.60
2023-05-09T03:09:17.102Z,82.86
2023-05-09T03:11:45.037Z,83.13
2023-05-09T03:14:13.352Z,83.72
2023-05-09T03:16:40.757Z,83.40
2023-05-09T03:19:10.645Z,82.86
2023-05-09T03:21:37.884Z,82.16
2023-05-09T03:24:05.375Z,81.64
2023-05-09T03:26:32.850Z,82.06
2023-05-09T03:29:00.539Z,81.21
2023-05-09T03:31:27.877Z,81.65
2023-05-09T03:33:55.406Z,82.39
2023-05-09T03:36:23.323Z,81.38
2023-05-09T03:38:50.898Z,79.95
2023-05-09T03:41:19.880Z,78.27
2023-05-09T03:43:47.637Z,78.07
2023-05-09T03:46:14.870Z,77.16
2023-05-09T03:48:43.285Z,73.96
2023-05-09T03:51:11.401Z,70.11
2023-05-09T03:53:39.547Z,67.74
2023-05-09T03:56:08.047Z,68.43
2023-05-09T03:58:36.979Z,69.84
2023-05-09T04:01:04.299Z,72.24
2023-05-09T04:03:32.136Z,73.78
2023-05-09T04:05:59.469Z,75.29
2023-05-09T04:08:27.243Z,74.39
2023-05-09T04:10:54.724Z,76.38
2023-05-09T04:13:22.419Z,76.70
2023-05-09T04:15:49.750Z,75.90
2023-05-09T04:18:17.190Z,76.63
2023-05-09T04:20:44.961Z,75.70
2023-05-09T04:23:12.244Z,75.23
2023-05-09T04:25:40.174Z,74.81
2023-05-09T04:28:08.445Z,75.54
2023-05-09T04:30:37.235Z,75.80
2023-05-09T04:33:04.828Z,74.87
2023-05-09T04:35:33.083Z,74.89
2023-05-09T04:38:00.778Z,75.47
2023-05-09T04:40:28.310Z,74.95
2023-05-09T04:42:57.600Z,74.84
2023-05-09T04:45:26.776Z,74.53
2023-05-09T04:47:54.646Z,73.47
2023-05-09T04:50:21.928Z,73.18
2023-05-09T04:52:49.087Z,72.92
2023-05-09T04:55:17.240Z,72.54
2023-05-09T04:57:45.118Z,72.16
2023-05-09T05:00:13.056Z,72.39
2023-05-09T05:02:41.001Z,71.38
2023-05-09T05:05:11.935Z,71.31
2023-05-09T05:07:40.092Z,70.49
2023-05-09T05:10:08.623Z,70.58
2023-05-09T05:12:36.503Z,70.05
2023-05-09T05:15:08.166Z,69.56
2023-05-09T05:17:35.686Z,69.32
2023-05-09T05:20:06.632Z,67.99
2023-05-09T05:22:34.105Z,67.06
2023-05-09T05:25:03.557Z,63.09
2023-05-09T05:27:31.756Z,57.25
2023-05-09T05:29:59.122Z,50.98
2023-05-09T05:32:26.730Z,47.88
2023-05-09T05:34:54.838Z,45.14
2023-05-09T05:37:22.207Z,43.42
2023-05-09T05:39:51.644Z,43.83
2023-05-09T05:42:19.030Z,43.94
2023-05-09T05:44:46.690Z,41.76
2023-05-09T05:47:14.914Z,41.24
2023-05-09T05:49:43.170Z,41.00
2023-05-09T05:52:10.316Z,40.78
2023-05-09T05:54:38.053Z,39.67
2023-05-09T05:57:05.310Z,39.98
2023-05-09T05:59:32.425Z,39.73
2023-05-09T06:02:00.421Z,37.24
2023-05-09T06:04:31.480Z,39.06
2023-05-09T06:06:59.764Z,35.71
2023-05-09T06:09:27.131Z,37.33
2023-05-09T06:11:54.563Z,40.29
2023-05-09T06:14:21.848Z,39.05
2023-05-09T06:16:49.077Z,37.71
2023-05-09T06:19:16.531Z,36.77
2023-05-09T06:21:43.918Z,37.25
2023-05-09T06:24:23.483Z,37.19
2023-05-09T06:26:59.325Z,37.18
2023-05-09T06:29:26.631Z,38.23
2023-05-09T06:31:53.878Z,38.71
2023-05-09T06:34:21.390Z,38.34
2023-05-09T06:36:48.576Z,40.54
2023-05-09T06:39:15.716Z,39.80
2023-05-09T06:41:43.094Z,37.65
2023-05-09T06:44:10.502Z,35.16
2023-05-09T06:46:37.714Z,35.97
2023-05-09T06:49:06.291Z,35.79
2023-05-09T06:51:33.810Z,38.62
2023-05-09T06:54:01.290Z,36.83
2023-05-09T06:56:29.014Z,39.21
2023-05-09T06:58:56.296Z,38.79
2023-05-09T07:01:23.788Z,38.08
2023-05-09T07:03:52.079Z,38.19
2023-05-09T07:06:19.368Z,35.88
2023-05-09T07:08:46.610Z,38.04
2023-05-09T07:11:14.111Z,39.39
2023-05-09T07:13:41.332Z,41.97
2023-05-09T07:16:08.517Z,43.73
2023-05-09T07:18:36.047Z,42.58
2023-05-09T07:21:03.455Z,41.26
2023-05-09T07:23:30.682Z,40.52
2023-05-09T07:25:58.904Z,41.22
2023-05-09T07:28:26.226Z,41.30
2023-05-09T07:30:56.028Z,42.18
2023-05-09T07:33:25.740Z,42.42
2023-05-09T07:35:53.286Z,41.37
2023-05-09T07:38:20.571Z,42.44
2023-05-09T07:40:48.102Z,41.06
2023-05-09T07:43:15.525Z,41.69
2023-05-09T07:45:42.706Z,41.53
2023-05-09T07:48:10.202Z,40.24
2023-05-09T07:50:37.472Z,40.74
2023-05-09T07:53:04.711Z,41.22
2023-05-09T07:55:32.216Z,40.27
2023-05-09T07:58:00.341Z,39.86
2023-05-09T08:00:27.950Z,39.47
2023-05-09T08:02:55.787Z,41.50
2023-05-09T08:05:23.079Z,38.33
2023-05-09T08:07:50.413Z,41.03
2023-05-09T08:10:17.959Z,40.91
2023-05-09T08:12:45.177Z,40.85
2023-05-09T08:15:12.654Z,39.93
2023-05-09T08:17:40.356Z,41.31
2023-05-09T08:20:09.006Z,41.56
2023-05-09T08:22:36.330Z,40.02
2023-05-09T08:25:04.080Z,40.18
2023-05-09T08:27:34.563Z,38.78
2023-05-09T08:30:01.774Z,39.97
2023-05-09T08:32:29.425Z,39.12
2023-05-09T08:34:56.628Z,38.70
2023-05-09T08:37:23.821Z,38.64
2023-05-09T08:39:51.370Z,38.44
2023-05-09T08:42:24.800Z,38.86
2023-05-09T08:44:53.685Z,36.77
2023-05-09T08:47:22.037Z,40.40
2023-05-09T08:49:50.517Z,39.94
2023-05-09T08:52:18.382Z,38.97
2023-05-09T08:54:46.286Z,39.07
2023-05-09T08:57:13.515Z,39.88
2023-05-09T08:59:43.470Z,40.57
2023-05-09T09:02:14.570Z,42.08
2023-05-09T09:04:42.326Z,40.11
2023-05-09T09:07:10.059Z,38.78
2023-05-09T09:09:37.583Z,38.28
2023-05-09T09:12:09.691Z,39.46
2023-05-09T09:14:39.178Z,42.00
2023-05-09T09:17:09.414Z,41.36
2023-05-09T09:19:37.317Z,42.20
2023-05-09T09:22:05.093Z,41.12
2023-05-09T09:24:32.740Z,39.63
2023-05-09T09:27:05.435Z,39.95
2023-05-09T09:29:33.978Z,40.06
2023-05-09T09:32:06.672Z,39.89
2023-05-09T09:34:34.309Z,38.47
2023-05-09T09:37:01.625Z,39.22
2023-05-09T09:39:28.793Z,37.85
2023-05-09T09:41:56.224Z,36.85
2023-05-09T09:44:23.670Z,36.28
2023-05-09T09:46:52.679Z,37.09
2023-05-09T09:49:26.914Z,37.66
2023-05-09T09:51:55.831Z,39.30
2023-05-09T09:54:26.938Z,38.70
2023-05-09T09:56:57.662Z,37.82
2023-05-09T09:59:58.858Z,38.11
2023-05-09T10:02:26.895Z,39.27
2023-05-09T10:04:54.374Z,37.80
2023-05-09T10:07:26.048Z,37.72
2023-05-09T10:09:53.559Z,37.17
2023-05-09T10:12:23.584Z,38.15
2023-05-09T10:14:50.974Z,37.90
2023-05-09T10:17:19.590Z,38.99
2023-05-09T10:19:48.228Z,38.72
2023-05-09T10:22:16.675Z,38.74
2023-05-09T10:25:06.859Z,36.07
2023-05-09T10:27:37.295Z,35.70
2023-05-09T10:30:11.186Z,36.42
2023-05-09T10:33:00.792Z,38.47
2023-05-09T10:35:31.257Z,39.09
2023-05-09T10:38:00.533Z,40.74
2023-05-09T10:40:32.136Z,40.78
2023-05-09T10:42:59.595Z,40.28
2023-05-09T10:45:27.218Z,39.48
2023-05-09T10:47:56.685Z,40.32
2023-05-09T10:50:24.535Z,39.08
2023-05-09T10:53:17.236Z,39.18
2023-05-09T10:55:56.572Z,38.43
2023-05-09T10:58:23.996Z,39.32
2023-05-09T11:01:08.590Z,39.34
2023-05-09T11:03:57.023Z,39.35
2023-05-09T11:06:45.304Z,40.16
2023-05-09T11:09:35.939Z,39.53
2023-05-09T11:12:14.930Z,39.11
2023-05-09T11:14:50.055Z,38.56
2023-05-09T11:17:21.077Z,39.08
2023-05-09T11:19:49.208Z,38.96
2023-05-09T11:22:20.244Z,38.27
2023-05-09T11:24:50.236Z,39.35
2023-05-09T11:27:25.574Z,37.86
2023-05-09T11:30:05.648Z,36.43
2023-05-09T11:32:36.164Z,38.08
2023-05-09T11:35:10.304Z,37.46
2023-05-09T11:37:49.384Z,37.84
2023-05-09T11:40:22.066Z,37.19
2023-05-09T11:42:58.336Z,37.02
2023-05-09T11:45:31.092Z,37.13
2023-05-09T11:47:59.388Z,39.08
2023-05-09T11:50:29.189Z,38.74
2023-05-09T11:52:56.463Z,38.52
2023-05-09T11:55:25.531Z,39.30
2023-05-09T11:57:54.612Z,38.38
2023-05-09T12:00:24.658Z,39.59
2023-05-09T12:02:52.811Z,38.92
2023-05-09T12:06:02.758Z,38.96
2023-05-09T12:08:30.462Z,40.10
2023-05-09T12:11:08.522Z,38.96
2023-05-09T12:13:36.144Z,39.00
2023-05-09T12:16:03.604Z,38.99
2023-05-09T12:18:31.278Z,37.58
2023-05-09T12:21:02.725Z,38.79
2023-05-09T12:23:34.942Z,39.18
2023-05-09T12:26:02.621Z,39.55
2023-05-09T12:28:31.073Z,39.55
2023-05-09T12:30:58.935Z,38.40
2023-05-09T12:33:27.081Z,39.13
2023-05-09T12:36:11.428Z,39.01
2023-05-09T12:38:40.372Z,37.84
2023-05-09T12:41:15.359Z,38.04
2023-05-09T12:43:50.248Z,38.34
2023-05-09T12:46:22.092Z,39.70
2023-05-09T12:48:49.950Z,38.96
2023-05-09T12:51:21.408Z,38.28
2023-05-09T12:53:49.185Z,39.59
2023-05-09T12:56:18.850Z,40.12
2023-05-09T12:58:55.949Z,40.39
2023-05-09T13:01:28.782Z,40.02
2023-05-09T13:04:04.440Z,39.95
2023-05-09T13:06:32.419Z,39.56
2023-05-09T13:09:01.791Z,39.04
2023-05-09T13:11:29.597Z,39.69
2023-05-09T13:13:59.207Z,39.85
2023-05-09T13:16:27.042Z,41.19
2023-05-09T13:18:54.240Z,41.12
2023-05-09T13:21:21.937Z,41.89
2023-05-09T13:23:50.395Z,40.67
2023-05-09T13:26:17.606Z,39.55
2023-05-09T13:28:45.220Z,39.41
2023-05-09T13:31:12.562Z,40.40
2023-05-09T13:33:39.812Z,40.88
2023-05-09T13:36:07.530Z,40.05
2023-05-09T13:38:38.941Z,39.04
2023-05-09T13:41:07.372Z,38.92
2023-05-09T13:43:35.548Z,39.62
2023-05-09T13:46:03.394Z,40.03
2023-05-09T13:48:30.988Z,39.45
2023-05-09T13:50:59.944Z,38.48
2023-05-09T13:53:27.434Z,37.59
2023-05-09T13:55:55.008Z,38.28
2023-05-09T13:58:22.743Z,38.39
2023-05-09T14:00:50.327Z,39.57
2023-05-09T14:03:18.108Z,39.90
2023-05-09T14:05:45.516Z,40.29
2023-05-09T14:08:12.763Z,40.70
2023-05-09T14:10:40.331Z,40.70
2023-05-09T14:13:08.632Z,39.99
2023-05-09T14:18:03.690Z,40.43
2023-05-09T14:20:31.000Z,41.20
2023-05-09T14:23:00.773Z,40.67
2023-05-09T14:25:28.396Z,40.72
2023-05-09T14:27:58.142Z,40.65
2023-05-09T14:30:28.318Z,41.32
2023-05-09T14:32:55.763Z,41.58
2023-05-09T14:35:23.637Z,41.86
2023-05-09T14:37:51.232Z,43.20
2023-05-09T14:40:21.263Z,43.19
2023-05-09T14:42:48.620Z,43.28
2023-05-09T14:45:15.946Z,42.92
2023-05-09T14:47:46.735Z,42.73
2023-05-09T14:50:16.115Z,43.42
2023-05-09T14:52:44.452Z,43.92
2023-05-09T14:55:11.698Z,43.31
2023-05-09T14:57:38.981Z,42.18
2023-05-09T15:00:20.166Z,40.79
2023-05-09T15:02:49.232Z,40.06
2023-05-09T15:05:17.141Z,40.05
2023-05-09T15:07:44.512Z,40.69
2023-05-09T15:10:11.929Z,42.12
2023-05-09T15:12:39.494Z,42.38
2023-05-09T15:15:31.918Z,42.01
2023-05-09T15:18:13.421Z,41.91
2023-05-09T15:20:40.965Z,40.97
2023-05-09T15:23:08.738Z,41.25
2023-05-09T15:25:36.098Z,41.05
2023-05-09T15:28:03.372Z,42.14
2023-05-09T15:30:32.330Z,42.56
2023-05-09T15:33:02.826Z,43.63
2023-05-09T15:35:36.440Z,43.51
2023-05-09T15:38:38.323Z,43.67
2023-05-09T15:41:26.198Z,44.65
2023-05-09T15:43:54.403Z,44.16
2023-05-09T15:46:22.310Z,44.22
2023-05-09T15:48:49.941Z,44.23
2023-05-09T15:51:17.167Z,44.38
2023-05-09T15:53:47.422Z,45.06
2023-05-09T15:56:14.756Z,44.78
2023-05-09T15:58:42.222Z,44.85
2023-05-09T16:01:13.048Z,45.55
2023-05-09T16:03:41.277Z,45.94
2023-05-09T16:06:08.775Z,45.98
2023-05-09T16:08:36.070Z,46.01
2023-05-09T16:11:05.252Z,46.33
2023-05-09T16:13:34.320Z,46.42
2023-05-09T16:16:03.759Z,46.24
2023-05-09T16:18:31.575Z,46.25
2023-05-09T16:20:59.687Z,46.63
2023-05-09T16:23:27.635Z,46.74
2023-05-09T16:26:19.402Z,46.83
2023-05-09T16:28:54.128Z,47.26
2023-05-09T16:31:21.708Z,47.10
2023-05-09T16:33:49.488Z,46.78
2023-05-09T16:36:16.914Z,46.32
2023-05-09T16:38:44.731Z,46.42
2023-05-09T16:41:12.501Z,46.35
2023-05-09T16:43:40.521Z,46.60
2023-05-09T16:46:08.042Z,46.48
2023-05-09T16:48:35.606Z,46.66
2023-05-09T16:51:03.329Z,47.00
2023-05-09T16:53:30.804Z,47.37
2023-05-09T16:55:58.657Z,46.80
2023-05-09T16:58:26.113Z,46.67
2023-05-09T17:00:53.590Z,46.52
2023-05-09T17:03:21.564Z,47.02
2023-05-09T17:05:48.856Z,47.13
2023-05-09T17:08:16.076Z,47.81
2023-05-09T17:10:43.610Z,48.26
2023-05-09T17:13:10.935Z,48.48
2023-05-09T17:15:38.573Z,48.86
2023-05-09T17:18:06.663Z,48.87
2023-05-09T17:20:33.949Z,49.01
2023-05-09T17:23:01.202Z,49.44
2023-05-09T17:25:28.917Z,49.85
2023-05-09T17:27:56.308Z,49.71
2023-05-09T17:30:23.848Z,49.65
2023-05-09T17:32:51.601Z,49.88
2023-05-09T17:35:20.869Z,49.96
2023-05-09T17:37:48.563Z,49.96
2023-05-09T17:40:16.283Z,50.24
2023-05-09T17:42:43.841Z,50.02
2023-05-09T17:45:15.258Z,50.32
2023-05-09T17:47:43.317Z,50.69
2023-05-09T17:50:18.684Z,50.82
2023-05-09T17:52:49.573Z,51.12
2023-05-09T17:55:19.444Z,51.60
2023-05-09T17:57:49.152Z,51.35
2023-05-09T18:00:17.342Z,51.82
2023-05-09T18:02:45.406Z,51.90
2023-05-09T18:05:13.065Z,51.89
2023-05-09T18:07:40.782Z,51.91
2023-05-09T18:10:09.318Z,52.18
2023-05-09T18:12:37.371Z,52.55
2023-05-09T18:15:06.759Z,53.00
2023-05-09T18:17:34.166Z,53.50
2023-05-09T18:20:02.634Z,54.17
2023-05-09T18:22:30.214Z,54.17
2023-05-09T18:24:57.499Z,54.36
2023-05-09T18:27:25.065Z,54.68
2023-05-09T18:29:52.320Z,54.87
2023-05-09T18:32:21.882Z,54.79
2023-05-09T18:34:49.553Z,55.27
2023-05-09T18:37:17.840Z,55.36
2023-05-09T18:39:45.518Z,55.66
2023-05-09T18:42:16.327Z,56.13
2023-05-09T18:44:44.124Z,56.11
2023-05-09T18:47:12.136Z,56.74
2023-05-09T18:49:40.046Z,56.79
2023-05-09T18:52:07.810Z,56.88
2023-05-09T18:54:36.564Z,56.88
2023-05-09T18:57:04.256Z,57.46
2023-05-09T18:59:32.679Z,57.50
2023-05-09T19:02:00.338Z,57.08
2023-05-09T19:04:28.672Z,57.43
2023-05-09T19:06:56.412Z,58.04
2023-05-09T19:09:31.442Z,58.18
2023-05-09T19:12:04.654Z,58.56
2023-05-09T19:14:33.326Z,58.80
2023-05-09T19:17:06.102Z,59.16
2023-05-09T19:19:35.099Z,60.17
2023-05-09T19:22:08.074Z,60.06
2023-05-09T19:24:36.121Z,60.73
2023-05-09T19:27:04.260Z,60.73
2023-05-09T19:29:31.616Z,61.16
2023-05-09T19:32:01.451Z,61.40
2023-05-09T19:34:30.416Z,61.46
2023-05-09T19:36:58.218Z,60.38
2023-05-09T19:39:29.527Z,60.28
2023-05-09T19:41:58.910Z,60.13
2023-05-09T19:44:29.353Z,60.08
2023-05-09T19:46:58.732Z,59.70
2023-05-09T19:49:27.575Z,60.72
2023-05-09T19:51:55.707Z,60.98
2023-05-09T19:54:27.592Z,61.09
2023-05-09T19:56:55.432Z,61.46
2023-05-09T19:59:23.647Z,61.56
2023-05-09T20:01:52.066Z,61.85
2023-05-09T20:04:21.931Z,62.34
2023-05-09T20:09:34.503Z,62.21
2023-05-09T20:12:03.572Z,62.50
2023-05-09T20:14:32.581Z,62.81
2023-05-09T20:17:00.977Z,62.52
2023-05-09T20:19:29.102Z,63.23
2023-05-09T20:21:57.941Z,63.45
2023-05-09T20:24:27.055Z,63.68
2023-05-09T20:26:58.158Z,63.50
2023-05-09T20:29:26.553Z,63.78
2023-05-09T20:31:54.653Z,64.02
2023-05-09T20:34:26.493Z,64.56
2023-05-09T20:36:55.762Z,64.65
2023-05-09T20:39:23.839Z,65.23
2023-05-09T20:41:52.817Z,66.49
2023-05-09T20:44:22.694Z,67.35
2023-05-09T20:46:51.162Z,68.17
2023-05-09T20:49:18.804Z,68.63
2023-05-09T20:51:46.464Z,69.66
2023-05-09T20:54:13.861Z,70.76
2023-05-09T20:56:48.115Z,71.65
2023-05-09T20:59:15.569Z,72.74
2023-05-09T21:01:43.972Z,73.00
2023-05-09T21:04:11.265Z,73.45
2023-05-09T21:06:38.677Z,74.31
2023-05-09T21:09:06.299Z,74.68
2023-05-09T21:11:33.551Z,75.30
2023-05-09T21:14:01.243Z,76.39
2023-05-09T21:16:28.978Z,77.13
2023-05-09T21:18:56.632Z,77.84
2023-05-09T21:21:24.174Z,78.74
2023-05-09T21:23:51.857Z,79.60
2023-05-09T21:26:19.024Z,79.85
2023-05-09T21:28:46.327Z,79.13
2023-05-09T21:31:16.875Z,79.89
2023-05-09T21:33:43.976Z,80.34
2023-05-09T21:36:11.829Z,80.60
2023-05-09T21:38:38.907Z,81.50
2023-05-09T21:41:06.001Z,81.92
2023-05-09T21:43:33.374Z,81.98
2023-05-09T21:46:00.676Z,81.64
2023-05-09T21:48:27.729Z,81.75
2023-05-09T21:50:55.279Z,82.87
2023-05-09T21:53:23.434Z,83.12
2023-05-09T21:55:50.975Z,82.84
2023-05-09T21:58:18.400Z,83.30
2023-05-09T22:00:45.954Z,83.55
2023-05-09T22:03:13.476Z,83.37
2023-05-09T22:05:41.317Z,82.70
2023-05-09T22:08:08.373Z,82.84
2023-05-09T22:10:37.494Z,83.52
2023-05-09T22:13:04.706Z,82.94
2023-05-09T22:15:31.883Z,82.60
2023-05-09T22:17:59.913Z,81.12
2023-05-09T22:20:27.385Z,80.57
2023-05-09T22:22:54.460Z,81.53
2023-05-09T22:25:21.887Z,84.12
2023-05-09T22:27:48.938Z,83.08
2023-05-09T22:30:16.828Z,82.18
2023-05-09T22:32:44.459Z,82.31
2023-05-09T22:35:12.003Z,82.99
2023-05-09T22:37:39.125Z,82.60
2023-05-09T22:40:07.247Z,82.56
2023-05-09T22:42:34.856Z,84.02
2023-05-09T22:45:02.388Z,85.29
2023-05-09T22:47:29.919Z,85.72
2023-05-09T22:49:57.310Z,86.88
2023-05-09T22:52:24.586Z,88.18
2023-05-09T22:54:52.398Z,89.08
2023-05-09T22:57:20.594Z,89.98
2023-05-09T22:59:47.890Z,90.38
2023-05-09T23:02:15.323Z,90.88
2023-05-09T23:04:42.511Z,91.39
2023-05-09T23:07:09.690Z,92.79
2023-05-09T23:09:37.165Z,93.21
2023-05-09T23:12:04.914Z,93.90
2023-05-09T23:14:32.577Z,94.60
2023-05-09T23:16:59.997Z,94.81
2023-05-09T23:19:27.315Z,95.33
2023-05-09T23:21:54.546Z,96.63
2023-05-09T23:24:21.883Z,97.04
2023-05-09T23:26:48.962Z,97.13
2023-05-09T23:29:16.379Z,98.81
2023-05-09T23:31:43.793Z,99.76
2023-05-09T23:34:10.931Z,100.00
2023-05-09T23:36:38.040Z,100.00
2023-05-09T23:39:05.625Z,100.00
2023-05-09T23:41:33.196Z,100.00
2023-05-09T23:44:01.924Z,100.00
2023-05-09T23:46:29.872Z,100.00
2023-05-09T23:48:57.083Z,100.00
2023-05-09T23:51:24.354Z,100.00
2023-05-09T23:53:51.769Z,100.00
2023-05-09T23:56:18.850Z,100.00
2023-05-09T23:58:46.044Z,100.00
